createdAt,value
2022-11-06T00:01:22.347Z,9.70
2022-11-06T00:03:53.015Z,9.60
2022-11-06T00:06:38.742Z,9.70
2022-11-06T00:09:09.674Z,9.70
2022-11-06T00:11:36.771Z,9.70
2022-11-06T00:14:04.335Z,9.70
2022-11-06T00:16:31.069Z,9.70
2022-11-06T00:19:01.363Z,9.60
2022-11-06T00:21:29.584Z,9.70
2022-11-06T00:23:58.712Z,9.70
2022-11-06T00:26:27.729Z,9.70
2022-11-06T00:28:54.591Z,9.80
2022-11-06T00:31:39.623Z,9.80
2022-11-06T00:34:07.627Z,9.70
2022-11-06T00:36:35.309Z,9.70
2022-11-06T00:39:02.182Z,9.90
2022-11-06T00:41:29.058Z,9.80
2022-11-06T00:43:58.599Z,9.80
2022-11-06T00:46:26.339Z,9.80
2022-11-06T00:48:54.521Z,9.80
2022-11-06T00:51:33.765Z,9.80
2022-11-06T00:54:02.525Z,9.80
2022-11-06T00:56:30.502Z,9.80
2022-11-06T00:59:00.403Z,9.80
2022-11-06T01:01:38.448Z,9.80
2022-11-06T01:04:08.710Z,9.80
2022-11-06T01:06:38.679Z,9.80
2022-11-06T01:09:08.713Z,9.80
2022-11-06T01:12:06.809Z,9.80
2022-11-06T01:14:26.163Z,9.80
2022-11-06T01:16:53.347Z,9.80
2022-11-06T01:19:21.637Z,9.80
2022-11-06T01:21:50.506Z,9.80
2022-11-06T01:24:22.946Z,9.70
2022-11-06T01:27:19.914Z,9.60
2022-11-06T01:29:37.299Z,9.60
2022-11-06T01:32:04.623Z,9.60
2022-11-06T01:34:31.372Z,9.60
2022-11-06T01:36:58.383Z,9.60
2022-11-06T01:39:25.223Z,9.60
2022-11-06T01:41:53.639Z,9.60
2022-11-06T01:44:41.398Z,9.60
2022-11-06T01:47:25.382Z,9.60
2022-11-06T01:49:57.272Z,9.60
2022-11-06T01:52:25.669Z,9.60
2022-11-06T01:54:55.947Z,9.50
2022-11-06T01:57:22.977Z,9.50
2022-11-06T01:59:51.672Z,9.60
2022-11-06T02:02:19.183Z,9.60
2022-11-06T02:04:48.488Z,9.60
2022-11-06T02:07:17.284Z,9.60
2022-11-06T02:09:44.308Z,9.50
2022-11-06T02:12:20.292Z,9.50
2022-11-06T02:15:02.153Z,9.50
2022-11-06T02:17:38.026Z,9.50
2022-11-06T02:20:31.180Z,9.60
2022-11-06T02:23:32.837Z,9.60
2022-11-06T02:26:12.900Z,9.60
2022-11-06T02:28:51.913Z,9.60
2022-11-06T02:31:24.800Z,9.60
2022-11-06T02:34:05.451Z,9.60
2022-11-06T02:36:40.423Z,9.60
2022-11-06T02:39:11.388Z,9.60
2022-11-06T02:41:43.535Z,9.70
2022-11-06T02:44:15.377Z,9.70
2022-11-06T02:46:49.632Z,9.70
2022-11-06T02:49:36.810Z,9.70
2022-11-06T02:52:26.595Z,9.70
2022-11-06T02:55:00.574Z,9.70
2022-11-06T02:57:31.980Z,9.70
2022-11-06T03:00:06.088Z,9.80
2022-11-06T03:02:56.160Z,9.80
2022-11-06T03:05:33.223Z,9.80
2022-11-06T03:08:07.404Z,9.80
2022-11-06T03:11:04.791Z,9.80
2022-11-06T03:13:38.924Z,9.80
2022-11-06T03:16:23.018Z,9.90
2022-11-06T03:19:09.723Z,9.80
2022-11-06T03:22:09.928Z,9.90
2022-11-06T03:24:42.720Z,9.80
2022-11-06T03:27:20.621Z,9.90
2022-11-06T03:29:56.048Z,9.90
2022-11-06T03:32:41.565Z,9.90
2022-11-06T03:35:33.886Z,9.90
2022-11-06T03:38:22.829Z,9.80
2022-11-06T03:41:12.737Z,9.80
2022-11-06T03:43:42.642Z,9.70
2022-11-06T03:46:16.612Z,9.70
2022-11-06T03:49:00.784Z,9.70
2022-11-06T03:51:38.087Z,9.60
2022-11-06T03:54:18.658Z,9.60
2022-11-06T03:56:57.975Z,9.60
2022-11-06T03:59:29.564Z,9.60
2022-11-06T04:01:58.085Z,9.60
2022-11-06T04:04:49.313Z,9.60
2022-11-06T04:07:20.685Z,9.60
2022-11-06T04:10:10.971Z,9.50
2022-11-06T04:12:57.796Z,9.40
2022-11-06T04:15:26.818Z,9.50
2022-11-06T04:17:53.615Z,9.50
2022-11-06T04:20:42.766Z,9.40
2022-11-06T04:23:36.708Z,9.50
2022-11-06T04:26:44.688Z,9.40
2022-11-06T04:29:26.221Z,9.50
2022-11-06T04:32:21.936Z,9.40
2022-11-06T04:35:13.050Z,9.40
2022-11-06T04:38:02.673Z,9.40
2022-11-06T04:41:07.970Z,9.30
2022-11-06T04:44:00.173Z,9.30
2022-11-06T04:46:34.583Z,9.30
2022-11-06T04:49:04.309Z,9.40
2022-11-06T04:51:36.240Z,9.40
2022-11-06T04:54:03.775Z,9.40
2022-11-06T04:56:35.270Z,9.30
2022-11-06T04:59:04.470Z,9.30
2022-11-06T05:01:31.615Z,9.20
2022-11-06T05:03:58.559Z,9.30
2022-11-06T05:06:29.784Z,9.40
2022-11-06T05:08:58.298Z,9.40
2022-11-06T05:11:25.182Z,9.30
2022-11-06T05:13:51.958Z,9.30
2022-11-06T05:16:18.708Z,9.30
2022-11-06T05:18:45.552Z,9.20
2022-11-06T05:21:31.010Z,9.20
2022-11-06T05:23:57.772Z,9.10
2022-11-06T05:26:24.546Z,9.20
2022-11-06T05:28:51.566Z,9.20
2022-11-06T05:31:18.415Z,9.10
2022-11-06T05:33:45.185Z,9.20
2022-11-06T05:36:12.033Z,9.20
2022-11-06T05:38:38.775Z,9.20
2022-11-06T05:41:05.628Z,9.20
2022-11-06T05:43:32.482Z,9.20
2022-11-06T05:46:00.599Z,9.20
2022-11-06T05:48:28.271Z,9.20
2022-11-06T05:51:04.134Z,9.20
2022-11-06T05:53:32.807Z,9.20
2022-11-06T05:55:59.726Z,9.20
2022-11-06T05:58:27.710Z,9.20
2022-11-06T06:00:55.241Z,9.30
2022-11-06T06:03:22.211Z,9.20
2022-11-06T06:05:49.115Z,9.20
2022-11-06T06:08:16.236Z,9.20
2022-11-06T06:10:47.303Z,9.30
2022-11-06T06:13:14.775Z,9.30
2022-11-06T06:15:42.953Z,9.30
2022-11-06T06:18:10.130Z,9.30
2022-11-06T06:20:37.620Z,9.30
2022-11-06T06:25:36.265Z,9.30
2022-11-06T06:28:03.058Z,9.30
2022-11-06T06:30:29.827Z,9.30
2022-11-06T06:32:56.642Z,9.30
2022-11-06T06:35:23.397Z,9.30
2022-11-06T06:37:54.086Z,9.30
2022-11-06T06:40:21.675Z,9.20
2022-11-06T06:42:49.951Z,9.30
2022-11-06T06:45:17.074Z,9.30
2022-11-06T06:47:43.879Z,9.30
2022-11-06T06:50:10.811Z,9.30
2022-11-06T06:52:37.623Z,9.30
2022-11-06T07:04:54.051Z,8.80
2022-11-06T07:07:20.832Z,9.30
2022-11-06T07:09:47.587Z,9.40
2022-11-06T07:12:14.359Z,9.40
2022-11-06T12:26:43.698Z,12.20
2022-11-06T12:29:34.588Z,12.40
2022-11-06T12:37:33.982Z,12.20
2022-11-06T12:40:25.801Z,12.60
2022-11-06T12:43:14.558Z,12.30
2022-11-06T12:46:09.111Z,12.40
2022-11-06T12:49:06.529Z,12.50
2022-11-06T12:52:00.741Z,12.50
2022-11-06T12:54:55.441Z,12.40
2022-11-06T12:57:59.875Z,12.40
2022-11-06T13:00:36.515Z,12.30
2022-11-06T13:06:03.445Z,12.40
2022-11-06T13:09:08.414Z,12.40
2022-11-06T13:11:50.466Z,12.40
2022-11-06T13:14:24.401Z,12.40
2022-11-06T13:17:06.217Z,12.50
2022-11-06T13:19:55.198Z,12.40
2022-11-06T13:23:14.001Z,12.50
2022-11-06T13:26:06.633Z,12.60
2022-11-06T13:28:57.912Z,12.60
2022-11-06T13:31:36.755Z,12.60
2022-11-06T13:34:05.637Z,12.80
2022-11-06T13:36:36.804Z,12.80
2022-11-06T13:39:07.092Z,12.90
2022-11-06T13:41:33.917Z,12.90
2022-11-06T13:44:16.139Z,12.90
2022-11-06T13:49:22.421Z,12.80
2022-11-06T13:52:08.222Z,12.80
2022-11-06T13:54:43.817Z,12.70
2022-11-06T13:57:48.322Z,12.60
2022-11-06T14:00:15.027Z,12.70
2022-11-06T14:02:44.577Z,12.70
2022-11-06T14:05:29.496Z,12.70
2022-11-06T14:07:57.735Z,12.70
2022-11-06T14:10:35.077Z,12.70
2022-11-06T14:13:04.415Z,12.70
2022-11-06T14:15:34.313Z,12.70
2022-11-06T14:18:01.930Z,12.60
2022-11-06T14:20:37.080Z,12.60
2022-11-06T14:23:29.070Z,12.60
2022-11-06T14:26:03.015Z,12.60
2022-11-06T14:28:35.141Z,12.50
2022-11-06T14:31:23.819Z,12.40
2022-11-06T14:33:51.400Z,12.40
2022-11-06T14:36:24.291Z,12.40
2022-11-06T14:38:51.816Z,12.40
2022-11-06T14:41:34.038Z,12.30
2022-11-06T14:44:12.191Z,12.40
2022-11-06T14:46:39.522Z,12.30
2022-11-06T14:49:11.887Z,12.30
2022-11-06T14:51:38.741Z,12.20
2022-11-06T14:54:21.209Z,12.20
2022-11-06T14:56:54.241Z,12.20
2022-11-06T14:59:34.242Z,12.10
2022-11-06T15:02:13.931Z,12.10
2022-11-06T15:04:50.121Z,12.00
2022-11-06T15:08:06.487Z,11.90
2022-11-06T15:10:42.721Z,11.90
2022-11-06T15:13:22.367Z,11.80
2022-11-06T15:15:52.744Z,11.80
2022-11-06T15:18:24.834Z,11.80
2022-11-06T15:21:03.044Z,11.70
2022-11-06T15:23:53.239Z,11.70
2022-11-06T15:26:41.900Z,11.60
2022-11-06T15:29:24.012Z,11.50
2022-11-06T15:31:54.671Z,11.50
2022-11-06T15:34:34.749Z,11.60
2022-11-06T15:37:17.036Z,11.60
2022-11-06T15:40:00.243Z,11.50
2022-11-06T15:42:33.799Z,11.60
2022-11-06T15:45:18.824Z,11.70
2022-11-06T15:47:57.660Z,11.70
2022-11-06T15:50:36.172Z,11.70
2022-11-06T15:53:29.434Z,11.60
2022-11-06T15:56:06.060Z,11.70
2022-11-06T15:58:34.897Z,11.70
2022-11-06T16:03:33.382Z,11.70
2022-11-06T16:06:03.863Z,11.80
2022-11-06T16:08:32.444Z,11.70
2022-11-06T16:11:01.112Z,11.70
2022-11-06T16:13:28.542Z,11.70
2022-11-06T16:15:56.534Z,11.70
2022-11-06T16:18:44.802Z,11.60
2022-11-06T16:21:24.086Z,11.60
2022-11-06T16:24:15.698Z,11.60
2022-11-06T16:26:52.082Z,11.70
2022-11-06T16:29:29.106Z,11.70
2022-11-06T16:32:05.968Z,11.60
2022-11-06T16:34:34.328Z,11.60
2022-11-06T16:37:03.764Z,11.60
2022-11-06T16:39:47.669Z,11.60
2022-11-06T16:42:32.998Z,11.50
2022-11-06T16:45:00.516Z,11.60
2022-11-06T16:47:27.389Z,11.50
2022-11-06T16:49:56.074Z,11.40
2022-11-06T16:52:38.973Z,11.50
2022-11-06T16:55:07.091Z,11.50
2022-11-06T16:57:54.443Z,11.40
2022-11-06T17:00:21.150Z,11.40
2022-11-06T17:02:50.455Z,11.40
2022-11-06T17:05:21.647Z,11.40
2022-11-06T17:08:04.045Z,11.30
2022-11-06T17:10:41.582Z,11.30
2022-11-06T17:13:16.158Z,11.30
2022-11-06T17:15:46.383Z,11.20
2022-11-06T17:18:16.994Z,11.20
2022-11-06T17:20:47.115Z,11.20
2022-11-06T17:23:16.259Z,11.30
2022-11-06T17:25:45.040Z,11.30
2022-11-06T17:28:12.139Z,11.30
2022-11-06T17:30:39.177Z,11.10
2022-11-06T17:33:05.935Z,11.10
2022-11-06T17:35:33.120Z,11.20
2022-11-06T17:38:06.057Z,11.20
2022-11-06T17:40:34.093Z,11.20
2022-11-06T17:43:00.838Z,11.20
2022-11-06T17:45:27.600Z,11.10
2022-11-06T17:47:54.442Z,11.10
2022-11-06T17:50:21.303Z,11.10
2022-11-06T17:52:48.077Z,11.00
2022-11-06T17:55:15.200Z,11.00
2022-11-06T17:57:42.237Z,11.00
2022-11-06T18:00:10.417Z,11.00
2022-11-06T18:02:59.756Z,11.00
2022-11-06T18:05:24.114Z,11.00
2022-11-06T18:07:50.870Z,11.00
2022-11-06T18:10:17.603Z,11.00
2022-11-06T18:12:45.245Z,11.00
2022-11-06T18:15:12.001Z,11.00
2022-11-06T18:17:38.770Z,11.00
2022-11-06T18:20:06.153Z,10.90
2022-11-06T18:22:32.885Z,10.90
2022-11-06T18:24:59.607Z,10.90
2022-11-06T18:27:26.496Z,10.90
2022-11-06T18:29:53.290Z,10.90
2022-11-06T18:32:20.128Z,10.90
2022-11-06T18:34:46.870Z,10.90
2022-11-06T18:37:13.624Z,10.90
2022-11-06T18:39:40.400Z,10.90
2022-11-06T18:42:07.156Z,10.90
2022-11-06T18:44:37.344Z,10.80
2022-11-06T18:47:04.143Z,10.90
2022-11-06T18:49:31.123Z,10.90
2022-11-06T18:51:57.848Z,11.00
2022-11-06T18:54:24.647Z,10.90
2022-11-06T18:56:51.551Z,11.00
2022-11-06T18:59:21.486Z,11.00
2022-11-06T19:01:48.429Z,11.00
2022-11-06T19:04:15.446Z,11.00
2022-11-06T19:06:44.986Z,11.00
2022-11-06T19:09:11.731Z,11.00
2022-11-06T19:11:38.591Z,11.00
2022-11-06T19:14:05.402Z,11.20
2022-11-06T19:16:32.228Z,11.00
2022-11-06T19:21:33.460Z,11.00
2022-11-06T19:24:04.000Z,11.00
2022-11-06T19:26:32.847Z,11.00
2022-11-06T19:29:00.245Z,11.00
2022-11-06T19:31:29.549Z,11.00
2022-11-06T19:33:57.747Z,11.00
2022-11-06T19:36:25.415Z,11.00
2022-11-06T19:38:52.937Z,11.00
2022-11-06T19:41:19.897Z,11.00
2022-11-06T19:43:46.803Z,10.90
2022-11-06T19:46:14.172Z,11.00
2022-11-06T19:48:42.177Z,11.00
2022-11-06T19:51:13.391Z,11.00
2022-11-06T19:53:41.589Z,11.00
2022-11-06T19:56:10.511Z,10.90
2022-11-06T19:58:37.295Z,11.00
2022-11-06T20:01:07.960Z,10.90
2022-11-06T20:03:36.083Z,10.80
2022-11-06T20:06:07.851Z,10.80
2022-11-06T20:08:37.025Z,10.80
2022-11-06T20:11:04.738Z,10.80
2022-11-06T20:13:36.248Z,10.80
2022-11-06T20:16:08.322Z,10.80
2022-11-06T20:18:35.910Z,10.80
2022-11-06T20:21:04.689Z,10.90
2022-11-06T20:23:31.890Z,10.90
2022-11-06T20:25:59.002Z,10.90
2022-11-06T20:28:26.342Z,10.80
2022-11-06T20:30:53.266Z,10.90
2022-11-06T20:33:20.451Z,10.80
2022-11-06T20:35:47.291Z,10.80
2022-11-06T20:38:15.214Z,10.80
2022-11-06T20:40:42.609Z,10.80
2022-11-06T20:43:11.110Z,10.90
2022-11-06T20:45:37.983Z,10.80
2022-11-06T20:48:06.267Z,10.80
2022-11-06T20:50:33.555Z,10.80
2022-11-06T20:53:00.753Z,10.80
2022-11-06T20:55:27.592Z,10.80
2022-11-06T20:57:54.503Z,10.80
2022-11-06T21:00:21.515Z,10.80
2022-11-06T21:02:48.460Z,10.80
2022-11-06T21:05:15.351Z,10.80
2022-11-06T21:07:42.193Z,10.80
2022-11-06T21:10:10.976Z,10.70
2022-11-06T21:12:37.953Z,10.80
2022-11-06T21:15:05.270Z,10.80
2022-11-06T21:17:32.091Z,10.80
2022-11-06T21:19:58.848Z,10.80
2022-11-06T21:22:25.583Z,10.80
2022-11-06T21:24:55.005Z,10.80
2022-11-06T21:27:21.798Z,10.90
2022-11-06T21:29:48.616Z,10.80
2022-11-06T21:32:15.369Z,10.70
2022-11-06T21:34:42.113Z,10.70
2022-11-06T21:37:08.929Z,10.70
2022-11-06T21:39:36.659Z,10.60
2022-11-06T21:42:05.114Z,10.60
2022-11-06T21:44:39.172Z,10.50
2022-11-06T21:47:05.947Z,10.40
2022-11-06T21:49:37.774Z,10.30
2022-11-06T21:52:29.595Z,10.20
2022-11-06T21:55:15.229Z,10.10
2022-11-06T21:57:49.317Z,10.00
2022-11-06T22:00:16.552Z,10.00
2022-11-06T22:02:43.429Z,10.00
2022-11-06T22:05:10.376Z,9.90
2022-11-06T22:07:37.213Z,9.90
2022-11-06T22:10:04.466Z,9.80
2022-11-06T22:12:31.282Z,9.80
2022-11-06T22:14:58.082Z,9.70
2022-11-06T22:17:24.851Z,9.70
2022-11-06T22:19:51.619Z,9.70
2022-11-06T22:22:18.410Z,9.60
2022-11-06T22:24:46.278Z,9.70
2022-11-06T22:27:13.016Z,9.70
2022-11-06T22:29:39.777Z,9.60
2022-11-06T22:32:06.626Z,9.60
2022-11-06T22:34:33.417Z,9.60
2022-11-06T22:37:00.152Z,9.50
2022-11-06T22:39:27.032Z,9.60
2022-11-06T22:41:56.360Z,9.50
2022-11-06T22:44:23.240Z,9.40
2022-11-06T22:46:59.092Z,9.50
2022-11-06T22:49:28.360Z,9.50
2022-11-06T22:54:30.855Z,9.50
2022-11-06T22:57:00.470Z,9.50
2022-11-06T22:59:32.607Z,9.50
2022-11-06T23:02:08.073Z,9.40
2022-11-06T23:04:37.762Z,9.40
2022-11-06T23:07:04.572Z,9.40
2022-11-06T23:09:36.907Z,9.40
2022-11-06T23:12:03.881Z,9.30
2022-11-06T23:14:30.641Z,9.30
2022-11-06T23:16:57.387Z,9.30
2022-11-06T23:19:24.827Z,9.30
2022-11-06T23:21:52.556Z,9.20
2022-11-06T23:24:19.390Z,9.30
2022-11-06T23:26:46.195Z,9.30
2022-11-06T23:29:13.081Z,9.40
2022-11-06T23:31:41.233Z,9.40
2022-11-06T23:34:08.385Z,9.40
2022-11-06T23:36:35.653Z,9.40
2022-11-06T23:39:02.403Z,9.40
2022-11-06T23:41:45.756Z,9.40
2022-11-06T23:44:32.643Z,9.50
2022-11-06T23:47:00.100Z,9.50
2022-11-06T23:49:26.836Z,9.40
2022-11-06T23:51:53.677Z,9.50
2022-11-06T23:54:20.711Z,9.40
2022-11-06T23:56:47.544Z,9.40
2022-11-06T23:59:14.311Z,9.50
